Time;durP1;ratioP1;P1;durP2;ratioP2;P2;SDS_P1;SDS_P2;PMS_P1;PMS_P2;Temp;Humidity;BMP_temperature;BMP_pressure;BME280_temperature;BME280_humidity;BME280_pressure;Samples;Min_cycle;Max_cycle;Signal;HPM_P1;HPM_P2
2022/08/19 00:01:24;;;;;;;11.40;9.43;;;;;;;18.77;87.95;94752.66;5014722;28;20482;-66
2022/08/19 00:04:03;;;;;;;10.02;9.00;;;;;;;18.70;88.01;94747.72;4981546;28;20077;-68
2022/08/19 00:06:30;;;;;;;13.68;7.85;;;;;;;18.64;88.11;94748.88;5014743;28;20048;-67
2022/08/19 00:08:59;;;;;;;10.60;7.93;;;;;;;18.61;88.50;94752.06;5010682;28;20408;-68
2022/08/19 00:11:27;;;;;;;13.70;8.80;;;;;;;18.64;88.83;94756.78;5019871;28;20451;-67
2022/08/19 00:13:56;;;;;;;15.60;9.05;;;;;;;18.56;89.25;94746.84;4953163;28;20461;-68
2022/08/19 00:16:25;;;;;;;11.48;8.65;;;;;;;18.61;89.86;94760.00;4986678;28;20503;-67
2022/08/19 00:18:54;;;;;;;12.63;8.98;;;;;;;18.60;89.79;94758.41;4995557;28;20054;-67
2022/08/19 00:21:25;;;;;;;11.68;9.75;;;;;;;18.62;90.57;94756.25;4997251;28;20045;-67
2022/08/19 00:23:54;;;;;;;11.52;8.80;;;;;;;18.61;89.59;94750.22;4998213;28;20054;-67
2022/08/19 00:26:21;;;;;;;10.98;8.95;;;;;;;18.61;89.38;94760.00;4998360;28;20041;-67
2022/08/19 00:28:47;;;;;;;11.00;9.00;;;;;;;18.61;89.41;94757.34;4996656;28;20049;-67
2022/08/19 00:31:16;;;;;;;13.30;8.98;;;;;;;18.59;89.25;94762.91;4998136;28;20486;-67
2022/08/19 00:33:43;;;;;;;11.43;8.57;;;;;;;18.48;89.79;94756.97;4998938;28;20052;-67
2022/08/19 00:36:11;;;;;;;10.55;8.40;;;;;;;18.46;89.84;94758.34;4995387;28;20046;-66
2022/08/19 00:38:42;;;;;;;11.00;9.18;;;;;;;18.36;90.38;94759.22;4997571;28;20077;-67
2022/08/19 00:41:14;;;;;;;17.65;7.97;;;;;;;18.29;90.77;94759.56;4999616;28;20841;-67
2022/08/19 00:43:41;;;;;;;10.80;8.82;;;;;;;18.18;91.20;94759.97;4998285;28;20048;-66
2022/08/19 00:46:08;;;;;;;12.82;9.32;;;;;;;18.13;91.70;94760.78;4999398;28;20435;-66
2022/08/19 00:48:36;;;;;;;11.98;9.13;;;;;;;18.11;92.41;94769.00;4999247;28;20538;-67
2022/08/19 00:51:05;;;;;;;10.07;8.57;;;;;;;18.10;92.52;94762.13;5001682;28;20042;-65
2022/08/19 00:53:33;;;;;;;11.70;9.07;;;;;;;18.06;92.31;94755.88;4998971;28;20064;-67
2022/08/19 00:56:04;;;;;;;12.73;8.65;;;;;;;18.09;92.47;94765.81;4998770;28;20041;-66
2022/08/19 00:58:33;;;;;;;10.02;8.77;;;;;;;18.07;92.37;94757.41;5000500;28;20037;-67
2022/08/19 01:01:02;;;;;;;10.05;8.50;;;;;;;17.89;92.89;94744.97;5003709;28;20050;-67
2022/08/19 01:03:29;;;;;;;12.50;9.43;;;;;;;17.93;93.26;94761.78;5000889;28;20654;-67
2022/08/19 01:06:16;;;;;;;14.15;9.40;;;;;;;17.90;93.25;94762.34;5002098;28;20112;-67
2022/08/19 01:08:46;;;;;;;11.93;9.15;;;;;;;17.92;93.49;94760.22;5003404;28;20041;-66
2022/08/19 01:11:16;;;;;;;20.00;9.95;;;;;;;17.95;94.64;94754.38;4999477;28;20050;-66
2022/08/19 01:13:44;;;;;;;10.60;8.27;;;;;;;18.01;95.09;94748.00;5001302;28;20076;-66
2022/08/19 01:16:18;;;;;;;15.27;9.55;;;;;;;18.02;94.62;94749.56;5001249;28;20050;-66
2022/08/19 01:18:45;;;;;;;18.02;10.50;;;;;;;18.03;94.21;94735.34;5000790;28;20076;-66
2022/08/19 01:21:27;;;;;;;11.88;8.93;;;;;;;18.06;93.61;94740.06;5002863;28;20527;-66
2022/08/19 01:23:54;;;;;;;13.30;9.05;;;;;;;17.89;93.95;94744.97;5003719;28;20049;-67
2022/08/19 01:26:24;;;;;;;11.27;8.82;;;;;;;17.86;94.44;94740.25;5003100;28;20515;-66
2022/08/19 01:28:54;;;;;;;12.75;10.23;;;;;;;17.83;94.99;94746.06;5002863;28;20046;-66
2022/08/19 01:31:31;;;;;;;17.42;10.13;;;;;;;17.71;96.04;94756.94;5002294;28;20045;-67
2022/08/19 01:34:00;;;;;;;13.65;9.95;;;;;;;17.62;95.45;94737.56;5002228;28;20111;-66
2022/08/19 01:36:30;;;;;;;13.45;8.82;;;;;;;17.55;95.96;94743.13;5000307;28;20041;-66
2022/08/19 01:38:58;;;;;;;12.45;8.98;;;;;;;17.51;96.56;94740.25;5002494;28;20511;-65
2022/08/19 01:41:25;;;;;;;10.80;8.13;;;;;;;17.53;96.30;94747.91;5000369;28;20443;-67
2022/08/19 01:43:53;;;;;;;11.25;9.27;;;;;;;17.44;96.66;94747.69;5001451;28;20516;-66
2022/08/19 01:46:41;;;;;;;10.02;8.63;;;;;;;17.37;97.01;94745.38;5001069;28;20690;-66
2022/08/19 01:49:08;;;;;;;11.90;9.75;;;;;;;17.32;98.17;94747.25;4984614;28;20084;-66
2022/08/19 01:51:37;;;;;;;16.10;9.77;;;;;;;17.24;98.26;94738.13;4998282;28;20072;-67
2022/08/19 01:54:08;;;;;;;13.57;9.32;;;;;;;17.19;98.97;94754.72;5001632;28;20141;-67
2022/08/19 01:56:35;;;;;;;11.10;9.75;;;;;;;17.05;100.00;94747.72;5002007;28;20125;-67
2022/08/19 01:59:08;;;;;;;11.40;9.52;;;;;;;16.99;100.00;94745.13;5002599;28;20050;-67
2022/08/19 02:01:35;;;;;;;11.27;9.55;;;;;;;16.95;100.00;94749.34;4999814;28;20359;-67
2022/08/19 02:04:02;;;;;;;12.20;9.93;;;;;;;16.91;100.00;94737.81;5002297;28;20132;-66
2022/08/19 02:06:29;;;;;;;11.13;9.00;;;;;;;16.89;100.00;94753.09;5001653;28;20486;-66
2022/08/19 02:08:57;;;;;;;12.38;10.70;;;;;;;16.81;100.00;94737.84;4999671;28;20050;-67
2022/08/19 02:11:33;;;;;;;11.75;9.00;;;;;;;16.78;100.00;94743.63;5001848;28;20042;-66
2022/08/19 02:14:02;;;;;;;12.10;10.15;;;;;;;16.72;100.00;94747.34;5001458;28;20431;-67
2022/08/19 02:16:30;;;;;;;13.38;9.68;;;;;;;16.59;100.00;94741.63;5016758;28;20049;-66
2022/08/19 02:19:00;;;;;;;12.65;9.82;;;;;;;16.61;100.00;94755.28;5021158;28;20424;-67
2022/08/19 02:21:28;;;;;;;12.23;9.52;;;;;;;16.58;100.00;94761.09;5019730;28;20549;-67
2022/08/19 02:23:56;;;;;;;12.75;9.18;;;;;;;16.55;100.00;94745.09;4919759;28;20600;-67
2022/08/19 02:26:23;;;;;;;14.43;10.45;;;;;;;16.58;100.00;94755.84;4920796;28;20094;-67
2022/08/19 02:28:50;;;;;;;12.73;9.18;;;;;;;16.51;100.00;94752.72;5021176;28;20117;-67
2022/08/19 02:31:20;;;;;;;20.67;10.65;;;;;;;16.46;100.00;94757.19;5020745;28;20041;-66
2022/08/19 02:33:48;;;;;;;13.55;10.35;;;;;;;16.47;100.00;94756.94;4963537;28;20052;-67
2022/08/19 02:36:16;;;;;;;13.15;9.07;;;;;;;16.47;100.00;94759.56;5013129;28;20269;-67
2022/08/19 02:38:47;;;;;;;18.40;9.95;;;;;;;16.39;100.00;94758.28;5007995;28;20037;-67
2022/08/19 02:41:23;;;;;;;;;;;;;;;16.31;100.00;94756.19;5022287;28;20144;-67
2022/08/19 02:43:54;;;;;;;12.43;10.32;;;;;;;16.15;100.00;94742.34;5021579;28;20037;-68
2022/08/19 02:46:41;;;;;;;12.75;10.38;;;;;;;16.19;100.00;94748.63;5015113;28;20473;-67
2022/08/19 02:49:08;;;;;;;15.52;10.00;;;;;;;16.16;100.00;94754.41;5019317;28;20047;-67
2022/08/19 02:51:39;;;;;;;15.70;11.00;;;;;;;16.08;100.00;94749.72;5017410;28;20042;-68
2022/08/19 02:54:08;;;;;;;18.55;9.90;;;;;;;16.09;100.00;94763.63;4985528;28;20269;-67
2022/08/19 02:56:36;;;;;;;13.40;10.10;;;;;;;16.08;100.00;94751.53;5009190;28;20045;-67
2022/08/19 02:59:08;;;;;;;14.68;10.18;;;;;;;16.09;100.00;94753.91;5016807;28;20041;-68
2022/08/19 03:01:40;;;;;;;14.70;11.05;;;;;;;16.12;100.00;94758.63;5015928;28;20117;-68
2022/08/19 03:04:09;;;;;;;14.10;10.35;;;;;;;16.14;100.00;94759.16;4919272;28;20177;-68
2022/08/19 03:06:38;;;;;;;12.40;10.27;;;;;;;16.21;100.00;94756.25;4919964;29;20052;-68
2022/08/19 03:09:05;;;;;;;18.70;10.30;;;;;;;16.28;100.00;94755.94;4920176;28;20629;-68
2022/08/19 03:11:33;;;;;;;15.77;9.68;;;;;;;16.30;100.00;94753.84;4998506;28;20049;-67
2022/08/19 03:14:01;;;;;;;14.98;9.65;;;;;;;16.25;100.00;94760.69;4996608;28;20407;-68
2022/08/19 03:16:31;;;;;;;13.65;9.43;;;;;;;16.30;100.00;94759.91;5018347;28;20053;-68
2022/08/19 03:19:01;;;;;;;15.32;9.50;;;;;;;16.33;100.00;94758.56;5020493;28;20168;-68
2022/08/19 03:21:33;;;;;;;11.15;9.32;;;;;;;16.30;100.00;94764.38;5002524;28;20063;-67
2022/08/19 03:24:07;;;;;;;12.73;9.73;;;;;;;16.30;100.00;94756.50;5018714;28;20068;-68
2022/08/19 03:26:39;;;;;;;14.35;10.32;;;;;;;16.32;100.00;94757.00;5017760;28;20049;-68
2022/08/19 03:29:10;;;;;;;15.98;9.77;;;;;;;16.28;100.00;94753.31;5016582;28;20045;-68
2022/08/19 03:31:42;;;;;;;12.30;9.30;;;;;;;16.28;100.00;94755.94;5006497;28;20521;-68
2022/08/19 03:34:28;;;;;;;11.25;8.77;;;;;;;16.24;100.00;94759.13;4917738;28;20051;-68
2022/08/19 03:37:05;;;;;;;13.75;8.63;;;;;;;16.15;100.00;94760.75;5017987;28;20049;-68
2022/08/19 03:39:33;;;;;;;14.52;9.80;;;;;;;16.13;100.00;94760.19;5007895;28;20502;-67
2022/08/19 03:42:02;;;;;;;11.88;9.45;;;;;;;16.08;100.00;94770.75;5014818;28;20124;-68
2022/08/19 03:44:48;;;;;;;10.80;9.30;;;;;;;16.03;100.00;94762.88;5019459;28;20091;-68
2022/08/19 03:47:16;;;;;;;14.98;9.93;;;;;;;15.96;100.00;94760.50;5015289;28;20131;-68
2022/08/19 03:49:44;;;;;;;16.00;9.90;;;;;;;15.85;100.00;94770.25;5015736;28;20080;-68
2022/08/19 03:52:10;;;;;;;12.57;9.90;;;;;;;15.85;100.00;94770.25;4995933;28;20084;-68
2022/08/19 03:54:38;;;;;;;19.52;10.70;;;;;;;15.89;100.00;94775.75;5014413;28;20503;-68
2022/08/19 03:57:05;;;;;;;20.23;10.77;;;;;;;15.81;100.00;94763.97;4992340;28;20128;-68
2022/08/19 03:59:35;;;;;;;14.35;10.55;;;;;;;15.94;100.00;94788.09;5013921;28;20592;-68
2022/08/19 04:02:08;;;;;;;16.15;10.95;;;;;;;15.95;100.00;94787.03;5010267;28;20065;-68
2022/08/19 04:04:38;;;;;;;17.70;10.73;;;;;;;16.02;100.00;94787.53;5014023;28;20083;-68
2022/08/19 04:07:05;;;;;;;13.18;9.95;;;;;;;15.88;100.00;94762.88;4998544;28;20061;-68
2022/08/19 04:09:34;;;;;;;15.02;11.15;;;;;;;16.08;100.00;94794.38;5013297;28;20045;-68
2022/08/19 04:12:00;;;;;;;13.70;10.73;;;;;;;16.12;100.00;94795.41;5006602;28;20055;-68
2022/08/19 04:14:33;;;;;;;14.23;10.25;;;;;;;16.12;100.00;94798.03;5015402;28;20498;-68
2022/08/19 04:17:04;;;;;;;14.75;10.60;;;;;;;16.16;100.00;94796.44;5018285;28;20045;-68
2022/08/19 04:19:33;;;;;;;13.85;9.63;;;;;;;16.25;100.00;94805.34;4934455;28;20043;-67
2022/08/19 04:22:00;;;;;;;11.00;9.30;;;;;;;16.32;100.00;94809.56;5015937;28;20049;-67
2022/08/19 04:24:28;;;;;;;12.98;9.88;;;;;;;16.39;100.00;94802.19;5018971;28;20068;-67
2022/08/19 04:26:54;;;;;;;14.93;9.88;;;;;;;16.49;100.00;94809.25;5016872;28;20065;-68
2022/08/19 04:29:24;;;;;;;12.90;9.75;;;;;;;16.59;100.00;94804.72;5016293;28;20048;-68
2022/08/19 04:31:55;;;;;;;15.50;10.23;;;;;;;16.73;100.00;94814.69;5016252;28;20329;-68
2022/08/19 04:34:25;;;;;;;11.40;9.10;;;;;;;16.86;100.00;94808.09;4996611;28;20699;-71
2022/08/19 04:36:55;;;;;;;12.23;10.55;;;;;;;17.00;100.00;94809.84;5018900;28;20049;-77
2022/08/19 04:44:58;;;;;;;12.77;8.70;;;;;;;17.49;100.00;94795.06;5016213;28;20045;-67
2022/08/19 04:47:26;;;;;;;11.75;9.13;;;;;;;17.57;100.00;94783.94;5016756;28;20056;-67
2022/08/19 04:50:13;;;;;;;12.60;8.77;;;;;;;17.85;100.00;94799.25;4978281;28;20521;-67
2022/08/19 04:52:44;;;;;;;11.60;9.02;;;;;;;18.06;100.00;94798.03;5018802;28;20583;-67
2022/08/19 04:55:12;;;;;;;11.25;9.30;;;;;;;18.14;100.00;94789.50;5019125;28;20076;-67
2022/08/19 04:57:40;;;;;;;11.70;8.23;;;;;;;18.39;99.54;94795.56;5016358;28;20563;-65
2022/08/19 05:00:09;;;;;;;12.40;8.75;;;;;;;18.48;98.51;94793.09;5018691;28;20378;-66
2022/08/19 05:02:37;;;;;;;12.85;8.55;;;;;;;18.67;97.45;94795.78;4994731;28;20052;-67
2022/08/19 05:05:06;;;;;;;11.35;9.00;;;;;;;18.79;96.86;94798.78;5018689;28;20550;-67
2022/08/19 05:07:33;;;;;;;18.95;8.98;;;;;;;19.00;95.33;94803.84;5017778;28;20120;-67
2022/08/19 05:10:00;;;;;;;25.30;8.95;;;;;;;19.26;93.91;94806.91;5014660;28;20494;-67
2022/08/19 05:12:28;;;;;;;11.40;7.93;;;;;;;19.46;92.75;94816.38;5012056;28;20056;-67
2022/08/19 05:14:57;;;;;;;14.98;8.95;;;;;;;19.61;90.95;94818.81;4915410;28;20529;-67
2022/08/19 05:17:26;;;;;;;10.85;8.90;;;;;;;19.81;89.25;94822.25;4981981;28;20181;-68
2022/08/19 05:22:46;;;;;;;11.45;8.70;;;;;;;20.04;88.46;94823.97;5018338;28;20041;-68
2022/08/19 05:25:20;;;;;;;10.60;8.70;;;;;;;20.16;88.60;94818.19;5000441;28;20064;-67
2022/08/19 05:27:47;;;;;;;;;;;;;;;20.24;89.00;94820.19;5019767;28;20801;-67
2022/08/19 05:30:15;;;;;;;14.05;8.68;;;;;;;20.20;88.65;94807.81;4944270;28;20468;-67
2022/08/19 05:32:42;;;;;;;9.95;8.85;;;;;;;20.42;87.83;94815.88;4975313;28;20607;-67
2022/08/19 05:35:09;;;;;;;9.73;8.73;;;;;;;20.50;86.80;94821.56;4919298;28;20036;-67
2022/08/19 05:37:37;;;;;;;12.23;9.00;;;;;;;20.61;87.59;94823.75;4999841;28;20069;-67
2022/08/19 05:40:04;;;;;;;15.48;8.95;;;;;;;20.71;86.51;94822.78;4997225;28;20053;-68
2022/08/19 05:42:31;;;;;;;17.90;9.25;;;;;;;20.85;85.83;94806.91;4997963;28;20049;-67
2022/08/19 05:44:58;;;;;;;10.75;9.02;;;;;;;20.91;85.93;94816.28;5015846;28;20038;-67
2022/08/19 05:47:25;;;;;;;14.52;8.98;;;;;;;21.03;84.66;94820.28;5019484;28;20810;-67
2022/08/19 05:49:52;;;;;;;12.63;9.60;;;;;;;21.06;84.61;94806.47;5019914;28;20050;-67
2022/08/19 05:52:19;;;;;;;11.13;8.90;;;;;;;21.22;83.54;94825.47;5006133;28;20103;-67
2022/08/19 05:54:54;;;;;;;15.93;8.20;;;;;;;21.41;83.00;94828.75;5003799;28;20069;-67
2022/08/19 05:57:23;;;;;;;15.38;9.85;;;;;;;21.41;82.22;94826.09;5021498;28;20043;-68
2022/08/19 05:59:51;;;;;;;15.70;8.25;;;;;;;21.49;81.19;94822.75;5020764;28;20041;-68
2022/08/19 06:02:27;;;;;;;;;;;;;;;21.65;80.34;94827.69;5002485;28;20571;-69
2022/08/19 06:04:54;;;;;;;22.77;9.63;;;;;;;21.73;80.30;94834.91;5020441;28;19952;-68
2022/08/19 06:07:21;;;;;;;20.70;8.48;;;;;;;21.84;76.91;94836.25;5018730;28;20057;-68
2022/08/19 06:09:48;;;;;;;18.92;9.73;;;;;;;22.06;74.29;94834.69;4998481;28;20420;-67
2022/08/19 06:12:31;;;;;;;22.38;9.73;;;;;;;22.02;76.04;94823.91;5016656;28;20049;-68
2022/08/19 06:15:00;;;;;;;18.13;8.75;;;;;;;22.27;75.31;94830.47;5018948;28;20068;-67
2022/08/19 06:17:31;;;;;;;20.67;9.48;;;;;;;22.41;74.09;94845.50;5021154;28;20063;-71
2022/08/19 06:19:58;;;;;;;25.40;9.18;;;;;;;22.57;72.61;94841.34;4919880;28;20540;-67
2022/08/19 06:22:27;;;;;;;16.40;8.32;;;;;;;22.77;70.91;94844.53;4987360;28;20156;-69
2022/08/19 06:24:55;;;;;;;24.10;8.52;;;;;;;22.93;67.63;94843.03;5018201;28;20155;-69
2022/08/19 06:27:22;;;;;;;21.90;8.05;;;;;;;22.94;66.63;94841.94;5017948;28;20554;-69
2022/08/19 06:29:49;;;;;;;11.85;7.05;;;;;;;23.00;66.49;94846.00;5002909;28;20057;-68
2022/08/19 06:32:18;;;;;;;15.38;8.07;;;;;;;23.06;66.42;94841.34;5020341;28;20045;-68
2022/08/19 06:34:46;;;;;;;16.23;8.32;;;;;;;23.29;67.16;94855.31;5020833;28;20045;-69
2022/08/19 06:37:13;;;;;;;11.48;8.70;;;;;;;23.45;66.04;94848.44;4916760;28;20539;-68
2022/08/19 06:39:43;;;;;;;14.85;7.13;;;;;;;23.64;63.99;94855.31;5017639;28;20041;-67
2022/08/19 06:42:12;;;;;;;8.45;6.93;;;;;;;23.81;63.77;94855.34;4999179;28;20057;-67
2022/08/19 06:44:41;;;;;;;20.90;8.07;;;;;;;23.93;63.58;94844.09;5018049;28;20046;-67
2022/08/19 06:47:15;;;;;;;14.18;6.95;;;;;;;24.08;62.31;94842.78;5004725;28;20151;-68
2022/08/19 06:49:53;;;;;;;7.35;6.53;;;;;;;24.31;61.96;94855.88;5013402;28;20095;-67
2022/08/19 06:52:26;;;;;;;10.40;7.43;;;;;;;24.43;59.13;94850.69;5013048;28;20457;-67
2022/08/19 06:54:56;;;;;;;9.98;7.05;;;;;;;24.52;58.10;94851.44;5016893;28;20046;-68
2022/08/19 06:57:26;;;;;;;8.88;6.78;;;;;;;24.38;58.45;94850.84;5016914;28;20100;-68
2022/08/19 06:59:54;;;;;;;9.70;6.82;;;;;;;24.53;58.60;94853.03;5017133;28;20061;-68
2022/08/19 07:02:22;;;;;;;10.88;7.18;;;;;;;24.74;58.40;94852.31;5016068;28;20049;-68
2022/08/19 07:04:49;;;;;;;11.60;7.82;;;;;;;24.80;57.43;94845.72;5014092;28;20053;-68
2022/08/19 07:07:20;;;;;;;11.10;6.07;;;;;;;24.87;55.43;94851.31;5018481;28;20045;-68
2022/08/19 07:09:50;;;;;;;10.23;5.90;;;;;;;24.82;57.30;94846.16;4992814;28;20584;-70
2022/08/19 07:12:24;;;;;;;17.10;6.80;;;;;;;24.97;56.45;94850.97;5016149;28;20687;-71
2022/08/19 07:14:53;;;;;;;13.65;6.80;;;;;;;25.13;54.97;94847.72;5001166;28;20072;-71
2022/08/19 07:17:20;;;;;;;10.18;6.30;;;;;;;25.35;55.08;94852.78;5011363;28;20057;-70
2022/08/19 07:19:47;;;;;;;7.80;5.65;;;;;;;25.48;52.43;94848.31;4999488;28;20041;-67
2022/08/19 07:22:14;;;;;;;8.05;5.20;;;;;;;25.59;53.06;94847.91;5018515;28;20037;-67
2022/08/19 07:24:43;;;;;;;6.70;5.60;;;;;;;25.77;52.59;94846.66;5016935;28;20050;-67
2022/08/19 07:27:18;;;;;;;7.45;5.75;;;;;;;26.01;52.10;94854.00;5018150;28;20045;-67
2022/08/19 07:29:52;;;;;;;;;;;;;;;26.20;51.46;94850.03;5016909;28;20041;-68
2022/08/19 07:32:22;;;;;;;11.57;5.70;;;;;;;26.28;51.01;94857.97;5017464;28;19928;-70
2022/08/19 07:34:49;;;;;;;6.43;4.75;;;;;;;26.40;47.60;94849.22;5017242;28;20060;-69
2022/08/19 07:37:16;;;;;;;6.60;4.43;;;;;;;26.58;47.66;94854.34;5018755;28;20042;-70
2022/08/19 07:39:42;;;;;;;7.45;4.70;;;;;;;26.69;46.95;94855.50;5018331;28;20052;-69
2022/08/19 07:42:10;;;;;;;11.80;4.75;;;;;;;26.92;45.72;94847.03;5019695;28;20509;-68
2022/08/19 07:44:39;;;;;;;7.15;4.78;;;;;;;26.95;46.16;94851.72;5001746;28;20162;-69
2022/08/19 07:47:11;;;;;;;8.57;6.18;;;;;;;26.95;45.55;94846.38;5018884;28;20532;-69
2022/08/19 07:49:58;;;;;;;11.98;5.60;;;;;;;27.15;47.22;94840.13;5001375;28;20045;-67
2022/08/19 07:52:25;;;;;;;8.82;5.55;;;;;;;27.32;45.75;94854.41;5019310;28;20053;-68
2022/08/19 07:54:52;;;;;;;9.55;6.13;;;;;;;27.55;46.16;94852.00;4919504;28;20476;-68
2022/08/19 07:57:18;;;;;;;8.63;5.50;;;;;;;27.73;45.22;94852.50;4920206;28;20051;-68
2022/08/19 07:59:45;;;;;;;12.90;5.05;;;;;;;27.82;45.32;94855.78;4983551;28;20042;-68
2022/08/19 08:02:12;;;;;;;12.38;5.63;;;;;;;28.02;45.23;94849.50;5008632;28;20050;-69
2022/08/19 08:10:12;;;;;;;8.57;5.60;;;;;;;28.37;43.86;94854.22;5014027;28;20030;-68
2022/08/19 08:12:47;;;;;;;13.23;5.28;;;;;;;28.49;42.47;94853.38;5014729;28;20057;-67
2022/08/19 08:15:34;;;;;;;10.30;5.50;;;;;;;28.62;44.09;94854.09;5020453;28;20050;-69
2022/08/19 08:18:07;;;;;;;;;;;;;;;28.66;43.75;94860.31;5014021;28;20551;-67
2022/08/19 08:20:35;;;;;;;7.57;5.45;;;;;;;28.53;44.13;94856.16;5012246;28;19983;-66
2022/08/19 08:25:48;;;;;;;21.40;5.82;;;;;;;28.81;42.56;94849.94;5013511;28;20050;-69
2022/08/19 08:28:16;;;;;;;15.43;5.57;;;;;;;28.97;42.36;94856.06;5019899;28;20049;-69
2022/08/19 08:30:47;;;;;;;9.20;5.80;;;;;;;28.91;42.68;94854.78;4987952;28;20270;-69
2022/08/19 08:33:24;;;;;;;12.35;4.85;;;;;;;28.56;42.02;94844.78;4999931;28;20162;-69
2022/08/19 08:36:11;;;;;;;6.78;4.55;;;;;;;28.68;41.88;94825.91;4999170;28;20065;-69
2022/08/19 08:38:38;;;;;;;9.10;4.78;;;;;;;29.06;40.03;94845.94;4920913;28;20059;-69
2022/08/19 08:41:30;;;;;;;19.42;4.93;;;;;;;29.30;40.09;94844.19;4917539;28;20032;-67
2022/08/19 08:43:58;;;;;;;11.57;4.43;;;;;;;29.49;39.20;94835.38;4997043;28;20053;-69
2022/08/19 08:46:49;;;;;;;6.18;4.80;;;;;;;29.60;38.11;94840.97;5017231;28;20526;-69
2022/08/19 08:49:41;;;;;;;6.07;4.70;;;;;;;29.71;38.10;94839.28;5016214;28;20120;-69
2022/08/19 08:52:25;;;;;;;8.00;4.38;;;;;;;29.83;37.13;94831.13;5014962;28;20055;-69
2022/08/19 08:55:01;;;;;;;20.10;5.00;;;;;;;30.08;37.19;94828.91;5014358;28;20459;-67
2022/08/19 08:57:44;;;;;;;10.35;5.20;;;;;;;30.35;37.35;94833.63;4997279;28;20051;-68
2022/08/19 09:00:16;;;;;;;6.93;4.95;;;;;;;30.55;37.49;94824.34;4918158;28;20119;-68
2022/08/19 09:02:44;;;;;;;10.35;4.82;;;;;;;30.84;37.12;94827.50;5021089;28;20073;-67
2022/08/19 09:05:20;;;;;;;9.50;4.47;;;;;;;30.95;36.25;94828.44;5021099;28;20394;-67
2022/08/19 09:08:02;;;;;;;6.55;4.80;;;;;;;31.17;36.99;94820.69;5026706;28;20045;-67
2022/08/19 09:10:37;;;;;;;7.47;4.25;;;;;;;31.31;35.05;94820.09;5019854;28;20318;-68
2022/08/19 09:13:37;;;;;;;10.15;4.70;;;;;;;30.90;36.54;94812.63;5016670;28;20048;-69
2022/08/19 09:16:20;;;;;;;7.57;4.80;;;;;;;30.73;36.66;94810.44;5015703;28;20051;-68
2022/08/19 09:18:57;;;;;;;10.95;5.22;;;;;;;31.01;36.04;94813.56;5017033;28;20128;-67
2022/08/19 09:21:27;;;;;;;11.52;4.63;;;;;;;31.23;35.61;94808.47;5019083;28;20691;-67
2022/08/19 09:24:00;;;;;;;12.30;4.75;;;;;;;31.40;34.99;94816.03;4922121;28;20094;-69
2022/08/19 09:26:30;;;;;;;9.27;4.60;;;;;;;31.64;34.01;94811.34;4924542;28;20109;-71
2022/08/19 09:29:16;;;;;;;9.38;4.07;;;;;;;31.85;33.02;94810.03;5022014;28;20111;-72
2022/08/19 09:31:43;;;;;;;5.78;4.35;;;;;;;32.09;33.41;94804.16;5021539;28;20048;-68
2022/08/19 09:34:10;;;;;;;7.28;4.13;;;;;;;31.82;32.68;94801.53;5005125;28;20041;-69
2022/08/19 09:36:49;;;;;;;7.32;4.43;;;;;;;31.96;32.43;94800.13;5015562;28;20084;-69
2022/08/19 09:39:16;;;;;;;6.32;4.32;;;;;;;32.24;33.49;94790.81;5014528;28;20116;-70
2022/08/19 09:41:43;;;;;;;9.60;4.30;;;;;;;32.60;31.46;94799.25;5020028;28;20038;-69
2022/08/19 09:44:15;;;;;;;4.82;3.50;;;;;;;32.55;31.37;94797.63;5017981;28;20217;-69
2022/08/19 09:46:43;;;;;;;10.45;3.88;;;;;;;32.67;31.08;94793.91;5020293;28;20038;-68
2022/08/19 09:49:10;;;;;;;6.05;3.75;;;;;;;32.83;31.56;94791.69;5021326;28;20126;-69
2022/08/19 09:51:39;;;;;;;5.57;3.78;;;;;;;32.98;29.38;94799.88;5021468;28;20589;-70
2022/08/19 09:54:06;;;;;;;4.25;3.28;;;;;;;33.10;29.84;94799.56;5021012;28;20115;-70
2022/08/19 09:56:37;;;;;;;10.77;4.22;;;;;;;33.08;29.58;94797.25;5021513;28;20107;-69
2022/08/19 09:59:09;;;;;;;6.15;3.53;;;;;;;33.08;28.50;94796.47;5020340;28;20119;-70
2022/08/19 10:01:35;;;;;;;4.25;3.88;;;;;;;33.11;29.20;94784.94;5001778;28;20546;-70
2022/08/19 10:04:07;;;;;;;3.67;3.38;;;;;;;33.04;28.63;94779.50;5020567;28;20049;-70
2022/08/19 10:06:49;;;;;;;4.38;3.50;;;;;;;33.31;29.20;94788.94;5006160;28;20049;-69
2022/08/19 10:09:20;;;;;;;6.75;3.92;;;;;;;33.33;28.80;94775.81;5019787;28;20049;-69
2022/08/19 10:12:02;;;;;;;5.47;3.80;;;;;;;33.50;28.22;94773.56;5021252;28;20119;-69
2022/08/19 10:14:30;;;;;;;11.15;3.90;;;;;;;33.79;28.18;94762.91;4986773;28;20544;-70
2022/08/19 10:16:57;;;;;;;7.63;4.18;;;;;;;34.02;27.49;94771.44;5001745;28;20264;-70
2022/08/19 10:19:25;;;;;;;7.10;4.22;;;;;;;34.12;27.18;94763.72;5020128;28;20049;-70
2022/08/19 10:21:53;;;;;;;7.10;3.55;;;;;;;34.06;27.77;94774.91;4919588;28;20048;-70
2022/08/19 10:24:27;;;;;;;5.78;3.83;;;;;;;34.52;27.80;94767.22;4998772;28;20057;-70
2022/08/19 10:26:55;;;;;;;9.15;4.00;;;;;;;34.69;27.17;94742.16;5016299;28;20045;-70
2022/08/19 10:29:28;;;;;;;7.63;3.45;;;;;;;34.88;26.02;94764.53;5011632;28;20072;-69
2022/08/19 10:32:07;;;;;;;6.13;3.72;;;;;;;34.60;26.21;94761.44;4919250;28;20052;-69
2022/08/19 10:34:39;;;;;;;6.82;3.50;;;;;;;34.68;26.81;94751.38;5020329;28;20041;-69
2022/08/19 10:37:17;;;;;;;4.28;3.88;;;;;;;35.32;25.64;94755.94;4905826;28;20047;-69
2022/08/19 10:39:54;;;;;;;4.90;3.75;;;;;;;35.41;25.92;94758.22;5019634;28;20056;-70
2022/08/19 10:42:21;;;;;;;5.28;3.72;;;;;;;35.26;25.85;94756.72;5015168;28;20056;-69
2022/08/19 10:44:48;;;;;;;5.35;4.38;;;;;;;35.45;25.04;94753.56;5013618;28;20111;-70
2022/08/19 10:47:18;;;;;;;4.70;3.97;;;;;;;35.79;25.50;94750.31;5002309;28;20544;-69
2022/08/19 10:52:46;;;;;;;8.52;4.07;;;;;;;35.51;25.29;94756.63;5015123;28;20136;-69
2022/08/19 10:58:02;;;;;;;6.57;3.97;;;;;;;35.89;25.06;94749.50;5016117;28;20410;-69
2022/08/19 11:00:31;;;;;;;7.28;4.22;;;;;;;35.89;25.14;94746.78;5017335;28;20514;-70
2022/08/19 11:02:58;;;;;;;4.80;3.80;;;;;;;35.71;24.44;94748.81;5014550;28;20052;-68
2022/08/19 11:05:25;;;;;;;6.05;4.00;;;;;;;35.99;25.12;94745.94;5015780;28;20056;-69
2022/08/19 11:07:51;;;;;;;7.13;4.60;;;;;;;36.01;23.99;94744.78;5018643;28;20042;-69
2022/08/19 11:10:19;;;;;;;11.07;4.63;;;;;;;36.15;24.83;94744.66;5020396;28;20037;-69
2022/08/19 11:12:54;;;;;;;8.85;3.92;;;;;;;36.40;23.93;94746.47;5015901;28;20554;-68
2022/08/19 11:15:21;;;;;;;6.15;4.05;;;;;;;36.53;23.85;94747.50;4920987;28;20051;-69
2022/08/19 11:17:48;;;;;;;4.57;3.90;;;;;;;36.72;23.14;94749.69;4915237;28;20052;-70
2022/08/19 11:20:15;;;;;;;6.97;3.45;;;;;;;36.91;22.88;94744.84;4916906;28;20048;-69
2022/08/19 11:22:42;;;;;;;4.60;3.97;;;;;;;37.53;22.84;94755.78;4912789;29;20051;-70
2022/08/19 11:25:10;;;;;;;4.07;3.60;;;;;;;37.82;22.79;94751.56;4918652;28;20047;-69
2022/08/19 11:27:45;;;;;;;15.60;4.05;;;;;;;37.38;22.22;94739.66;4918147;28;20146;-69
2022/08/19 11:30:13;;;;;;;6.50;4.28;;;;;;;37.36;22.29;94742.03;5015639;28;20077;-69
2022/08/19 11:32:41;;;;;;;4.47;3.60;;;;;;;37.20;22.57;94734.47;5003733;28;20056;-69
2022/08/19 11:35:15;;;;;;;4.45;3.88;;;;;;;37.10;23.25;94733.38;5015013;28;20037;-69
2022/08/19 11:37:42;;;;;;;7.60;3.70;;;;;;;37.38;23.46;94717.94;5016866;28;20105;-69
2022/08/19 11:40:10;;;;;;;5.07;3.53;;;;;;;37.63;22.71;94722.31;5018470;28;20052;-69
2022/08/19 11:42:56;;;;;;;4.50;3.63;;;;;;;38.14;21.91;94723.19;4925061;28;20058;-69
2022/08/19 11:45:25;;;;;;;4.35;3.35;;;;;;;37.23;22.73;94711.16;5018438;28;20060;-69
2022/08/19 11:47:52;;;;;;;5.32;4.05;;;;;;;37.47;22.62;94715.53;4943855;28;20424;-68
2022/08/19 11:50:19;;;;;;;5.07;4.28;;;;;;;37.45;22.53;94717.84;5015755;28;20128;-68
2022/08/19 11:52:47;;;;;;;8.68;3.58;;;;;;;37.96;23.08;94717.19;5012026;28;20044;-76
2022/08/19 11:55:14;;;;;;;5.05;3.50;;;;;;;38.37;21.71;94702.59;5001054;28;20057;-75
2022/08/19 11:57:43;;;;;;;4.32;3.70;;;;;;;38.43;21.59;94706.41;4998638;28;20051;-70
2022/08/19 12:00:12;;;;;;;6.53;3.83;;;;;;;39.21;21.10;94708.88;4995879;28;20525;-71
2022/08/19 12:02:40;;;;;;;5.53;3.90;;;;;;;39.11;20.31;94709.88;5000102;28;20716;-71
2022/08/19 12:05:07;;;;;;;9.05;3.55;;;;;;;39.14;20.70;94709.03;4998618;28;20045;-71